createdAt,value
2023-04-18T00:01:44.494Z,7.72
2023-04-18T00:04:11.693Z,7.69
2023-04-18T00:06:38.332Z,7.67
2023-04-18T00:09:05.168Z,7.68
2023-04-18T00:11:31.661Z,7.67
2023-04-18T00:13:59.430Z,7.62
2023-04-18T00:16:27.279Z,7.59
2023-04-18T00:18:54.242Z,7.57
2023-04-18T00:21:23.281Z,7.53
2023-04-18T00:23:50.059Z,7.45
2023-04-18T00:26:16.451Z,7.40
2023-04-18T00:28:42.877Z,7.33
2023-04-18T00:31:09.477Z,7.31
2023-04-18T00:33:36.151Z,7.27
2023-04-18T00:36:02.686Z,7.28
2023-04-18T00:38:29.198Z,7.25
2023-04-18T00:40:55.593Z,7.22
2023-04-18T00:43:23.716Z,7.16
2023-04-18T00:45:50.780Z,7.08
2023-04-18T00:48:17.859Z,7.05
2023-04-18T00:50:45.398Z,7.03
2023-04-18T00:53:13.234Z,6.96
2023-04-18T00:55:40.671Z,6.92
2023-04-18T00:58:07.389Z,6.87
2023-04-18T01:00:34.168Z,6.84
2023-04-18T01:03:01.811Z,6.79
2023-04-18T01:05:28.597Z,6.77
2023-04-18T01:08:00.816Z,6.74
2023-04-18T01:10:28.478Z,6.73
2023-04-18T01:13:15.244Z,6.70
2023-04-18T01:15:43.222Z,6.65
2023-04-18T01:18:13.157Z,6.61
2023-04-18T01:20:41.634Z,6.60
2023-04-18T01:23:10.291Z,6.56
2023-04-18T01:25:38.378Z,6.56
2023-04-18T01:28:06.916Z,6.54
2023-04-18T01:30:34.693Z,6.51
2023-04-18T01:33:04.415Z,6.52
2023-04-18T01:35:32.107Z,6.51
2023-04-18T01:38:00.004Z,6.46
2023-04-18T01:40:26.693Z,6.44
2023-04-18T01:42:55.148Z,6.37
2023-04-18T01:45:22.371Z,6.34
2023-04-18T01:47:49.103Z,6.31
2023-04-18T01:50:15.881Z,6.27
2023-04-18T01:52:42.355Z,6.26
2023-04-18T01:55:09.986Z,6.26
2023-04-18T01:57:37.271Z,6.21
2023-04-18T02:00:06.171Z,6.14
2023-04-18T02:02:34.019Z,6.13
2023-04-18T02:05:00.772Z,6.09
2023-04-18T02:07:28.105Z,6.09
2023-04-18T02:09:54.700Z,6.03
2023-04-18T02:12:26.583Z,5.99
2023-04-18T02:14:54.677Z,5.95
2023-04-18T02:17:23.566Z,5.95
2023-04-18T02:19:51.643Z,5.90
2023-04-18T02:22:18.328Z,5.88
2023-04-18T02:24:45.358Z,5.88
2023-04-18T02:27:12.217Z,5.83
2023-04-18T02:29:38.709Z,5.79
2023-04-18T02:32:05.749Z,5.74
2023-04-18T02:34:33.662Z,5.71
2023-04-18T02:37:00.182Z,5.67
2023-04-18T02:39:26.712Z,5.63
2023-04-18T02:41:53.190Z,5.60
2023-04-18T02:44:19.745Z,5.55
2023-04-18T02:46:46.485Z,5.52
2023-04-18T02:49:13.162Z,5.49
2023-04-18T02:51:39.594Z,5.48
2023-04-18T02:54:06.078Z,5.46
2023-04-18T02:56:32.585Z,5.45
2023-04-18T02:59:00.544Z,5.38
2023-04-18T03:01:27.015Z,5.35
2023-04-18T03:03:53.673Z,5.38
2023-04-18T03:06:20.221Z,5.35
2023-04-18T03:08:46.718Z,5.29
2023-04-18T03:11:14.016Z,5.26
2023-04-18T03:13:40.918Z,5.18
2023-04-18T03:16:07.675Z,5.16
2023-04-18T03:18:34.262Z,5.13
2023-04-18T03:21:01.493Z,5.13
2023-04-18T03:23:28.626Z,5.13
2023-04-18T03:25:55.512Z,5.12
2023-04-18T03:28:21.947Z,5.07
2023-04-18T03:30:49.322Z,5.08
2023-04-18T03:33:17.055Z,5.06
2023-04-18T03:35:43.662Z,5.03
2023-04-18T03:38:10.105Z,5.03
2023-04-18T03:40:36.612Z,5.00
2023-04-18T03:43:03.137Z,4.99
2023-04-18T03:45:30.127Z,4.95
2023-04-18T03:47:56.703Z,4.92
2023-04-18T03:50:24.344Z,4.90
2023-04-18T03:52:52.226Z,4.89
2023-04-18T03:55:19.764Z,4.87
2023-04-18T03:57:46.934Z,4.83
2023-04-18T04:00:14.422Z,4.82
2023-04-18T04:02:41.050Z,4.84
2023-04-18T04:05:08.168Z,4.87
2023-04-18T04:07:35.337Z,4.91
2023-04-18T04:10:02.129Z,4.94
2023-04-18T04:12:29.186Z,4.95
2023-04-18T04:14:55.720Z,4.99
2023-04-18T04:17:22.514Z,5.02
2023-04-18T04:19:50.416Z,5.04
2023-04-18T04:22:17.187Z,5.06
2023-04-18T04:24:44.086Z,5.09
2023-04-18T04:27:12.653Z,5.11
2023-04-18T04:29:39.724Z,5.11
2023-04-18T04:32:06.713Z,5.13
2023-04-18T04:34:34.534Z,5.12
2023-04-18T04:37:01.384Z,5.13
2023-04-18T04:39:27.884Z,5.15
2023-04-18T04:41:54.399Z,5.15
2023-04-18T04:44:21.960Z,5.19
2023-04-18T04:46:50.017Z,5.19
2023-04-18T04:49:16.459Z,5.23
2023-04-18T04:51:43.016Z,5.23
2023-04-18T04:54:09.426Z,5.24
2023-04-18T04:56:36.687Z,5.27
2023-04-18T04:59:03.179Z,5.29
2023-04-18T05:01:29.635Z,5.29
2023-04-18T05:03:56.232Z,5.30
2023-04-18T05:06:24.568Z,5.30
2023-04-18T05:08:51.173Z,5.32
2023-04-18T05:11:18.226Z,5.34
2023-04-18T05:13:44.746Z,5.35
2023-04-18T05:16:11.293Z,5.34
2023-04-18T05:18:39.313Z,5.34
2023-04-18T05:21:06.181Z,5.34
2023-04-18T05:23:34.876Z,5.37
2023-04-18T05:26:01.390Z,5.40
2023-04-18T05:28:27.742Z,5.41
2023-04-18T05:31:01.076Z,5.42
2023-04-18T05:33:31.917Z,5.44
2023-04-18T05:35:58.853Z,5.46
2023-04-18T05:38:25.777Z,5.48
2023-04-18T05:40:52.356Z,5.49
2023-04-18T05:43:19.658Z,5.52
2023-04-18T05:45:46.901Z,5.55
2023-04-18T05:48:13.926Z,5.58
2023-04-18T05:50:40.760Z,5.63
2023-04-18T05:53:07.274Z,5.65
2023-04-18T05:55:34.384Z,5.70
2023-04-18T05:58:01.086Z,5.71
2023-04-18T06:00:28.210Z,5.73
2023-04-18T06:02:55.129Z,5.76
2023-04-18T06:05:22.067Z,5.82
2023-04-18T06:07:48.553Z,5.85
2023-04-18T06:10:16.036Z,5.87
2023-04-18T06:12:42.470Z,5.90
2023-04-18T06:15:09.839Z,5.95
2023-04-18T06:17:50.443Z,5.96
2023-04-18T06:23:11.788Z,6.08
2023-04-18T06:25:40.810Z,6.16
2023-04-18T06:28:07.362Z,6.25
2023-04-18T06:30:33.922Z,6.32
2023-04-18T06:33:02.154Z,6.41
2023-04-18T06:35:34.806Z,6.49
2023-04-18T06:38:03.961Z,6.59
2023-04-18T06:47:49.022Z,6.85
2023-04-18T06:50:19.609Z,6.93
2023-04-18T06:52:50.437Z,6.95
2023-04-18T06:55:19.672Z,6.92
2023-04-18T06:57:47.457Z,6.96
2023-04-18T07:00:15.987Z,6.98
2023-04-18T07:02:44.213Z,7.06
2023-04-18T07:05:10.944Z,7.15
2023-04-18T07:07:37.738Z,7.19
2023-04-18T07:10:04.989Z,7.18
2023-04-18T07:12:31.524Z,7.21
2023-04-18T07:14:59.069Z,7.24
2023-04-18T07:20:23.585Z,7.22
2023-04-18T07:22:51.431Z,7.24
2023-04-18T07:25:20.167Z,7.32
2023-04-18T07:27:49.387Z,7.30
2023-04-18T07:30:19.203Z,7.32
2023-04-18T07:32:46.535Z,7.48
2023-04-18T07:35:13.224Z,7.56
2023-04-18T07:37:39.732Z,7.61
2023-04-18T07:40:10.032Z,7.73
2023-04-18T07:42:41.790Z,7.86
2023-04-18T07:45:08.826Z,7.95
2023-04-18T07:47:43.632Z,8.15
2023-04-18T07:50:18.724Z,8.41
2023-04-18T07:52:47.757Z,8.58
2023-04-18T07:55:15.220Z,8.64
2023-04-18T07:57:48.061Z,8.54
2023-04-18T08:00:17.169Z,8.37
2023-04-18T08:02:45.898Z,8.57
2023-04-18T08:05:12.636Z,8.77
2023-04-18T08:07:39.148Z,8.79
2023-04-18T08:10:07.579Z,8.74
2023-04-18T08:12:34.444Z,8.82
2023-04-18T08:15:01.019Z,8.98
2023-04-18T08:17:51.136Z,9.00
2023-04-18T08:21:08.050Z,9.22
2023-04-18T08:23:34.629Z,9.40
2023-04-18T08:26:04.610Z,9.35
2023-04-18T08:28:32.375Z,9.32
2023-04-18T08:30:58.883Z,9.39
2023-04-18T08:33:25.602Z,9.57
2023-04-18T08:35:52.454Z,9.56
2023-04-18T08:38:21.741Z,9.38
2023-04-18T08:40:49.451Z,9.27
2023-04-18T08:43:16.164Z,9.36
2023-04-18T08:45:44.362Z,9.49
2023-04-18T08:48:15.299Z,9.54
2023-04-18T08:50:43.702Z,9.61
2023-04-18T08:53:11.921Z,9.43
2023-04-18T08:55:38.430Z,9.52
2023-04-18T08:58:06.901Z,9.70
2023-04-18T09:00:34.311Z,9.75
2023-04-18T09:03:03.927Z,9.70
2023-04-18T09:05:40.176Z,9.83
2023-04-18T09:08:24.370Z,9.93
2023-04-18T09:10:51.082Z,9.96
2023-04-18T09:13:38.486Z,9.92
2023-04-18T09:16:06.376Z,9.91
2023-04-18T09:18:32.890Z,10.19
2023-04-18T09:21:17.475Z,10.56
2023-04-18T09:23:46.536Z,10.97
2023-04-18T09:26:29.627Z,10.69
2023-04-18T09:29:06.424Z,10.53
2023-04-18T09:35:29.049Z,9.95
2023-04-18T09:37:55.820Z,10.19
2023-04-18T09:40:24.248Z,10.45
2023-04-18T09:43:17.604Z,10.69
2023-04-18T09:45:44.228Z,10.62
2023-04-18T09:48:11.110Z,10.47
2023-04-18T09:50:40.237Z,10.70
2023-04-18T09:53:08.722Z,10.78
2023-04-18T09:55:36.309Z,10.74
2023-04-18T09:58:05.185Z,10.75
2023-04-18T10:00:34.176Z,10.99
2023-04-18T10:03:08.201Z,10.96
2023-04-18T10:05:36.485Z,10.96
2023-04-18T10:08:03.720Z,10.91
2023-04-18T10:10:35.007Z,10.80
2023-04-18T10:13:03.158Z,10.91
2023-04-18T10:15:32.114Z,11.06
2023-04-18T10:18:05.071Z,10.80
2023-04-18T10:20:36.139Z,10.71
2023-04-18T10:23:38.203Z,10.79
2023-04-18T10:26:08.821Z,11.00
2023-04-18T10:28:56.904Z,11.24
2023-04-18T10:31:28.345Z,11.10
2023-04-18T10:34:26.258Z,11.06
2023-04-18T10:37:15.285Z,11.02
2023-04-18T10:45:37.516Z,11.56
2023-04-18T10:48:29.979Z,11.79
2023-04-18T10:51:17.128Z,11.85
2023-04-18T10:53:51.976Z,12.08
2023-04-18T10:56:21.440Z,11.97
2023-04-18T10:58:52.292Z,11.99
2023-04-18T11:01:32.176Z,12.11
2023-04-18T11:04:00.248Z,11.79
2023-04-18T11:06:27.996Z,11.43
2023-04-18T11:09:21.840Z,11.39
2023-04-18T11:12:06.621Z,11.44
2023-04-18T11:15:23.577Z,11.52
2023-04-18T11:18:01.323Z,11.56
2023-04-18T11:20:29.746Z,11.50
2023-04-18T11:22:58.775Z,11.56
2023-04-18T11:25:32.037Z,11.58
2023-04-18T11:28:00.483Z,11.59
2023-04-18T11:30:28.434Z,11.61
2023-04-18T11:32:56.334Z,11.81
2023-04-18T11:35:22.929Z,11.69
2023-04-18T11:37:51.481Z,11.47
2023-04-18T11:40:18.471Z,11.41
2023-04-18T11:42:48.214Z,11.31
2023-04-18T11:45:16.182Z,11.54
2023-04-18T11:47:43.976Z,11.74
2023-04-18T11:50:12.951Z,11.92
2023-04-18T11:52:42.899Z,11.91
2023-04-18T11:55:20.659Z,12.00
2023-04-18T11:58:08.995Z,11.92
2023-04-18T12:00:54.854Z,11.85
2023-04-18T12:03:26.812Z,11.99
2023-04-18T12:08:44.896Z,12.01
2023-04-18T12:11:21.926Z,12.14
2023-04-18T12:13:48.621Z,12.23
2023-04-18T12:16:17.344Z,12.25
2023-04-18T12:19:11.337Z,12.27
2023-04-18T12:21:55.527Z,12.27
2023-04-18T12:24:25.012Z,12.41
2023-04-18T12:26:57.480Z,12.42
2023-04-18T12:29:24.923Z,12.62
2023-04-18T12:31:51.737Z,12.68
2023-04-18T12:34:18.622Z,12.74
2023-04-18T12:36:55.119Z,12.72
2023-04-18T12:39:21.537Z,12.58
2023-04-18T12:41:49.710Z,12.68
2023-04-18T12:44:16.822Z,12.73
2023-04-18T12:46:43.460Z,12.77
2023-04-18T12:49:11.426Z,12.82
2023-04-18T12:51:38.316Z,12.73
2023-04-18T12:54:04.913Z,12.62
2023-04-18T12:56:31.574Z,12.55
2023-04-18T12:58:58.116Z,12.54
2023-04-18T13:01:26.400Z,12.37
2023-04-18T13:04:08.298Z,12.32
2023-04-18T13:06:38.431Z,12.32
2023-04-18T13:09:08.224Z,12.25
2023-04-18T13:11:34.708Z,12.14
2023-04-18T13:14:03.481Z,12.11
2023-04-18T13:16:29.949Z,12.07
2023-04-18T13:18:56.555Z,12.16
2023-04-18T13:21:25.148Z,12.21
2023-04-18T13:23:52.105Z,12.12
2023-04-18T13:26:20.168Z,12.18
2023-04-18T13:28:46.640Z,12.35
2023-04-18T13:31:15.661Z,12.50
2023-04-18T13:33:43.485Z,12.62
2023-04-18T13:36:10.238Z,12.64
2023-04-18T13:38:38.369Z,12.62
2023-04-18T13:41:12.225Z,12.70
2023-04-18T13:43:39.037Z,12.87
2023-04-18T13:46:09.348Z,13.03
2023-04-18T13:48:36.307Z,13.15
2023-04-18T13:51:03.245Z,13.25
2023-04-18T13:53:31.192Z,13.30
2023-04-18T13:55:58.314Z,13.33
2023-04-18T13:58:24.843Z,13.20
2023-04-18T14:03:36.440Z,13.87
2023-04-18T14:06:05.331Z,13.97
2023-04-18T14:08:31.848Z,14.22
2023-04-18T14:10:58.489Z,14.00
2023-04-18T14:13:25.020Z,13.70
2023-04-18T14:15:53.035Z,13.73
2023-04-18T14:18:21.824Z,13.73
2023-04-18T14:20:48.666Z,13.62
2023-04-18T14:23:16.235Z,13.56
2023-04-18T14:25:43.986Z,13.71
2023-04-18T14:28:13.122Z,13.78
2023-04-18T14:30:45.557Z,13.72
2023-04-18T14:33:12.640Z,13.55
2023-04-18T14:35:39.374Z,13.44
2023-04-18T14:38:08.410Z,13.34
2023-04-18T14:40:36.637Z,13.34
2023-04-18T14:43:09.533Z,13.39
2023-04-18T14:45:36.027Z,13.18
2023-04-18T14:48:02.964Z,13.14
2023-04-18T14:54:31.551Z,13.60
2023-04-18T14:57:01.404Z,13.81
2023-04-18T14:59:30.239Z,13.91
2023-04-18T15:01:57.134Z,13.63
2023-04-18T15:04:50.734Z,13.63
2023-04-18T15:07:19.037Z,13.84
2023-04-18T15:12:27.266Z,13.94
2023-04-18T15:14:55.940Z,14.02
2023-04-18T15:17:22.571Z,14.01
2023-04-18T15:19:50.960Z,14.18
2023-04-18T15:22:20.866Z,14.12
2023-04-18T15:24:49.108Z,14.07
2023-04-18T15:27:16.648Z,14.09
2023-04-18T15:29:50.640Z,14.01
2023-04-18T15:32:18.010Z,14.01
2023-04-18T15:34:44.765Z,14.04
2023-04-18T15:37:11.859Z,14.00
2023-04-18T15:39:39.325Z,14.05
2023-04-18T15:42:07.585Z,14.04
2023-04-18T15:44:34.443Z,14.02
2023-04-18T15:47:03.585Z,14.13
2023-04-18T15:49:30.166Z,14.13
2023-04-18T15:51:56.981Z,14.24
2023-04-18T15:54:23.827Z,14.21
2023-04-18T15:56:51.089Z,14.04
2023-04-18T15:59:17.804Z,14.07
2023-04-18T16:01:49.961Z,14.10
2023-04-18T16:04:23.955Z,14.21
2023-04-18T16:07:27.650Z,14.24
2023-04-18T16:09:54.269Z,14.19
2023-04-18T16:12:20.977Z,14.19
2023-04-18T16:14:47.452Z,14.23
2023-04-18T16:17:15.426Z,14.24
2023-04-18T16:19:42.162Z,14.23
2023-04-18T16:22:18.531Z,14.17
2023-04-18T16:24:45.403Z,14.12
2023-04-18T16:27:11.940Z,14.03
2023-04-18T16:29:39.561Z,13.81
2023-04-18T16:32:06.710Z,13.71
2023-04-18T16:37:22.337Z,13.57
2023-04-18T16:37:26.716Z,13.47
2023-04-18T16:39:53.367Z,13.51
2023-04-18T16:42:20.193Z,13.54
2023-04-18T16:44:47.338Z,13.60
2023-04-18T16:47:14.897Z,13.56
2023-04-18T16:53:45.956Z,13.54
2023-04-18T16:56:13.698Z,13.54
2023-04-18T16:58:40.942Z,13.51
2023-04-18T17:01:08.219Z,13.53
2023-04-18T17:03:35.325Z,13.50
2023-04-18T17:06:02.124Z,13.45
2023-04-18T17:08:29.008Z,13.40
2023-04-18T17:10:59.576Z,13.35
2023-04-18T17:13:27.294Z,13.28
2023-04-18T17:15:54.142Z,13.21
2023-04-18T17:18:20.999Z,13.12
2023-04-18T17:20:50.581Z,13.06
2023-04-18T17:23:18.466Z,13.01
2023-04-18T17:25:47.997Z,12.98
2023-04-18T17:28:17.065Z,12.98
2023-04-18T17:30:44.032Z,13.01
2023-04-18T17:33:11.240Z,13.03
2023-04-18T17:35:41.355Z,13.06
2023-04-18T17:38:09.234Z,13.11
2023-04-18T17:40:35.764Z,13.06
2023-04-18T17:43:02.313Z,13.01
2023-04-18T17:45:28.976Z,12.94
2023-04-18T17:47:59.425Z,12.90
2023-04-18T17:50:28.584Z,12.86
2023-04-18T17:52:57.805Z,12.84
2023-04-18T17:55:27.535Z,12.81
2023-04-18T17:57:57.672Z,12.76
2023-04-18T18:00:27.928Z,12.70
2023-04-18T18:02:54.830Z,12.68
2023-04-18T18:05:23.983Z,12.59
2023-04-18T18:10:51.243Z,12.48
2023-04-18T18:13:22.650Z,12.54
2023-04-18T18:15:49.586Z,12.48
2023-04-18T18:20:58.136Z,12.30
2023-04-18T18:23:25.319Z,12.23
2023-04-18T18:29:14.325Z,12.16
2023-04-18T18:31:41.660Z,12.10
2023-04-18T18:34:08.720Z,12.06
2023-04-18T18:36:35.542Z,12.00
2023-04-18T18:39:02.294Z,11.98
2023-04-18T18:41:28.818Z,11.94
2023-04-18T18:44:03.752Z,11.89
2023-04-18T18:46:34.653Z,11.84
2023-04-18T18:49:03.815Z,11.78
2023-04-18T18:51:32.886Z,11.72
2023-04-18T18:53:59.498Z,11.70
2023-04-18T18:56:26.337Z,11.68
2023-04-18T18:59:04.162Z,11.62
2023-04-18T19:01:31.229Z,11.58
2023-04-18T19:04:00.898Z,11.55
2023-04-18T19:06:30.860Z,11.54
2023-04-18T19:09:00.123Z,11.49
2023-04-18T19:11:27.983Z,11.45
2023-04-18T19:13:56.177Z,11.39
2023-04-18T19:16:28.016Z,11.35
2023-04-18T19:19:06.076Z,11.32
2023-04-18T19:21:33.457Z,11.29
2023-04-18T19:24:02.016Z,11.37
2023-04-18T19:26:31.005Z,11.36
2023-04-18T19:31:57.616Z,11.16
2023-04-18T19:34:25.361Z,11.09
2023-04-18T19:36:55.259Z,11.08
2023-04-18T19:39:22.898Z,11.06
2023-04-18T19:41:53.958Z,11.04
2023-04-18T19:44:25.318Z,10.99
2023-04-18T19:46:52.646Z,10.96
2023-04-18T19:49:22.762Z,10.89
2023-04-18T19:51:55.521Z,10.80
2023-04-18T19:54:22.251Z,10.80
2023-04-18T19:56:51.870Z,10.77
2023-04-18T19:59:31.431Z,10.72
2023-04-18T20:04:47.132Z,10.57
2023-04-18T20:07:18.103Z,10.54
2023-04-18T20:09:53.123Z,10.57
2023-04-18T20:12:24.105Z,10.55
2023-04-18T20:14:51.981Z,10.46
2023-04-18T20:17:30.507Z,10.41
2023-04-18T20:19:57.686Z,10.38
2023-04-18T20:22:27.515Z,10.31
2023-04-18T20:24:57.920Z,10.30
2023-04-18T20:27:28.970Z,10.22
2023-04-18T20:29:57.231Z,10.17
2023-04-18T20:32:24.157Z,10.19
2023-04-18T20:34:54.664Z,10.18
2023-04-18T20:37:21.657Z,10.13
2023-04-18T20:39:53.062Z,10.12
2023-04-18T20:42:19.696Z,10.06
2023-04-18T20:44:47.077Z,10.05
2023-04-18T20:47:15.832Z,10.06
2023-04-18T20:49:42.633Z,10.04
2023-04-18T20:52:17.610Z,10.01
2023-04-18T20:54:44.155Z,9.97
2023-04-18T20:57:18.310Z,9.93
2023-04-18T20:59:48.830Z,9.81
2023-04-18T21:02:17.004Z,9.74
2023-04-18T21:04:44.553Z,9.77
2023-04-18T21:07:11.449Z,9.75
2023-04-18T21:09:38.366Z,9.74
2023-04-18T21:12:07.155Z,9.70
2023-04-18T21:14:33.778Z,9.67
2023-04-18T21:17:00.844Z,9.67
2023-04-18T21:19:29.686Z,9.61
2023-04-18T21:21:56.356Z,9.59
2023-04-18T21:24:23.111Z,9.55
2023-04-18T21:26:52.468Z,9.50
2023-04-18T21:29:19.038Z,9.49
2023-04-18T21:31:45.560Z,9.45
2023-04-18T21:34:12.604Z,9.41
2023-04-18T21:36:40.166Z,9.42
2023-04-18T21:39:06.714Z,9.41
2023-04-18T21:41:34.417Z,9.38
2023-04-18T21:44:03.403Z,9.36
2023-04-18T21:46:30.102Z,9.34
2023-04-18T21:48:56.756Z,9.31
2023-04-18T21:51:23.591Z,9.27
2023-04-18T21:53:52.309Z,9.23
2023-04-18T21:56:18.990Z,9.17
2023-04-18T21:58:46.100Z,9.18
2023-04-18T22:01:12.829Z,9.17
2023-04-18T22:03:39.811Z,9.17
2023-04-18T22:06:10.477Z,9.13
2023-04-18T22:08:37.172Z,9.12
2023-04-18T22:11:04.953Z,9.12
2023-04-18T22:13:34.371Z,9.11
2023-04-18T22:16:05.044Z,9.10
2023-04-18T22:18:37.561Z,9.09
2023-04-18T22:21:04.694Z,9.08
2023-04-18T22:23:31.200Z,9.07
2023-04-18T22:25:58.606Z,9.01
2023-04-18T22:28:28.052Z,8.96
2023-04-18T22:30:58.410Z,8.93
2023-04-18T22:33:26.541Z,8.91
2023-04-18T22:35:53.584Z,8.92
2023-04-18T22:38:20.123Z,8.86
2023-04-18T22:40:46.756Z,8.81
2023-04-18T22:43:13.607Z,8.77
2023-04-18T22:45:40.454Z,8.71
2023-04-18T22:48:11.268Z,8.74
2023-04-18T22:50:42.614Z,8.72
2023-04-18T22:53:10.829Z,8.69
2023-04-18T22:55:41.783Z,8.69
2023-04-18T22:58:09.163Z,8.63
2023-04-18T23:00:37.733Z,8.61
2023-04-18T23:03:05.083Z,8.56
2023-04-18T23:05:31.782Z,8.50
2023-04-18T23:08:00.227Z,8.47
2023-04-18T23:10:27.157Z,8.45
2023-04-18T23:12:53.933Z,8.40
2023-04-18T23:15:23.089Z,8.39
2023-04-18T23:17:54.595Z,8.40
2023-04-18T23:20:21.826Z,8.40
2023-04-18T23:22:51.818Z,8.39
2023-04-18T23:25:21.172Z,8.35
2023-04-18T23:27:48.392Z,8.36
2023-04-18T23:30:22.428Z,8.36
2023-04-18T23:32:49.003Z,8.36
2023-04-18T23:35:15.921Z,8.37
2023-04-18T23:37:42.444Z,8.38
2023-04-18T23:40:09.156Z,8.39
2023-04-18T23:42:37.122Z,8.38
2023-04-18T23:45:04.150Z,8.34
2023-04-18T23:47:30.716Z,8.34
2023-04-18T23:49:57.472Z,8.32
2023-04-18T23:52:24.217Z,8.28
2023-04-18T23:54:51.936Z,8.26
2023-04-18T23:57:18.991Z,8.26
2023-04-18T23:59:45.632Z,8.27
